Time;durP1;ratioP1;P1;durP2;ratioP2;P2;SDS_P1;SDS_P2;PMS_P1;PMS_P2;Temp;Humidity;BMP_temperature;BMP_pressure;BME280_temperature;BME280_humidity;BME280_pressure;Samples;Min_cycle;Max_cycle;Signal;HPM_P1;HPM_P2
2022/04/01 00:00:43;;;;;;;3.40;2.28;;;;;;;-0.62;85.55;100282.44;6228293;23;20713;-77
2022/04/01 00:03:09;;;;;;;4.57;1.90;;;;;;;-0.46;84.72;100285.88;6225942;23;20014;-77
2022/04/01 00:05:35;;;;;;;4.93;2.25;;;;;;;-0.50;83.89;100273.84;6228679;23;20015;-77
2022/04/01 00:08:02;;;;;;;2.38;1.92;;;;;;;-0.57;84.94;100257.69;6252833;23;20012;-77
2022/04/01 00:10:27;;;;;;;3.95;2.35;;;;;;;-0.51;84.70;100274.88;6228767;23;20434;-79
2022/04/01 00:12:55;;;;;;;5.15;2.33;;;;;;;-0.54;84.91;100265.34;6228810;23;20011;-76
2022/04/01 00:15:21;;;;;;;2.47;2.05;;;;;;;-0.47;84.88;100289.56;6201599;23;20012;-76
2022/04/01 00:17:46;;;;;;;6.13;2.25;;;;;;;-0.49;83.83;100280.91;6201386;23;20099;-75
2022/04/01 00:20:18;;;;;;;3.78;1.85;;;;;;;-0.60;84.41;100274.19;6254770;23;20047;-76
2022/04/01 00:22:46;;;;;;;4.20;2.42;;;;;;;-0.42;84.51;100287.13;6227390;23;20551;-76
2022/04/01 00:25:49;;;;;;;;;;;;;;;;;;;;;
2022/04/01 00:28:15;;;;;;;4.55;2.53;;;;;;;-0.37;84.84;100284.69;6242504;23;20042;-74
2022/04/01 00:30:49;;;;;;;4.32;2.42;;;;;;;-0.37;83.90;100295.44;6176532;23;20004;-73
2022/04/01 00:33:16;;;;;;;3.97;2.42;;;;;;;-0.62;84.15;100258.28;6224280;23;20034;-72
2022/04/01 00:35:45;;;;;;;3.28;2.28;;;;;;;-0.30;84.04;100307.03;6222502;23;20000;-75
2022/04/01 00:38:10;;;;;;;4.93;2.50;;;;;;;-0.43;83.15;100285.47;6223028;23;20015;-75
2022/04/01 00:40:39;;;;;;;4.47;2.75;;;;;;;-0.45;83.59;100292.88;6223896;23;20004;-74
2022/04/01 00:43:14;;;;;;;4.80;2.30;;;;;;;-0.54;84.29;100282.31;6225001;23;20015;-73
2022/04/01 00:46:00;;;;;;;2.88;2.08;;;;;;;-0.28;83.00;100302.28;6223337;23;20454;-74
2022/04/01 00:48:26;;;;;;;4.72;1.98;;;;;;;-0.34;82.58;100295.03;6223808;23;20046;-75
2022/04/01 00:50:58;;;;;;;5.32;2.30;;;;;;;-0.42;83.24;100289.84;6224305;23;20039;-76
2022/04/01 00:53:23;;;;;;;3.38;2.00;;;;;;;-0.45;83.26;100309.00;6224965;22;20012;-73
2022/04/01 00:55:49;;;;;;;3.38;2.15;;;;;;;-0.51;83.56;100310.66;6255564;22;20026;-74
2022/04/01 00:58:16;;;;;;;3.78;1.90;;;;;;;-0.46;82.57;100313.56;6255199;22;20011;-73
2022/04/01 01:00:42;;;;;;;2.70;1.88;;;;;;;-0.60;82.75;100301.91;6254155;22;20004;-74
2022/04/01 01:03:08;;;;;;;2.67;1.60;;;;;;;-0.59;82.66;100308.09;6253158;22;20024;-73
2022/04/01 01:05:33;;;;;;;5.22;1.90;;;;;;;-0.68;83.10;100299.34;6232673;22;20011;-73
2022/04/01 01:08:04;;;;;;;4.38;1.88;;;;;;;-0.67;82.99;100305.53;6213106;22;20014;-73
2022/04/01 01:10:30;;;;;;;3.05;2.13;;;;;;;-0.75;82.88;100298.47;6232330;22;20660;-75
2022/04/01 01:12:56;;;;;;;5.35;2.00;;;;;;;-0.63;83.07;100318.38;6255944;22;20065;-74
2022/04/01 01:15:24;;;;;;;2.33;1.58;;;;;;;-0.65;82.03;100315.06;6256702;22;20011;-77
2022/04/01 01:17:51;;;;;;;4.63;1.52;;;;;;;-0.62;82.30;100324.59;6258243;22;20056;-77
2022/04/01 01:20:17;;;;;;;3.15;1.67;;;;;;;-0.64;83.32;100305.16;6233061;22;20008;-75
2022/04/01 01:22:47;;;;;;;3.13;2.00;;;;;;;-0.58;81.83;100302.53;6232161;22;20008;-77
2022/04/01 01:25:14;;;;;;;2.47;1.35;;;;;;;-0.54;82.55;100314.53;6258982;22;20053;-76
2022/04/01 01:27:41;;;;;;;3.05;1.80;;;;;;;-0.52;81.78;100308.97;6257022;22;20011;-76
2022/04/01 01:30:10;;;;;;;7.30;1.65;;;;;;;-0.56;81.86;100307.69;6263196;22;20011;-76
2022/04/01 01:32:36;;;;;;;5.05;1.45;;;;;;;-0.66;81.39;100299.16;6295231;22;20037;-76
2022/04/01 01:35:06;;;;;;;1.70;1.17;;;;;;;-0.62;81.38;100311.19;6296015;22;19999;-76
2022/04/01 01:37:32;;;;;;;4.88;1.90;;;;;;;-0.65;81.93;100309.69;6266784;22;20018;-76
2022/04/01 01:40:03;;;;;;;5.13;1.50;;;;;;;-0.72;82.47;100306.94;6270375;22;20007;-76
2022/04/01 01:42:31;;;;;;;2.92;1.25;;;;;;;-0.83;81.81;100295.91;6262780;22;20331;-76
2022/04/01 01:44:59;;;;;;;2.42;1.67;;;;;;;-0.91;82.03;100300.41;6256640;22;20034;-76
2022/04/01 01:47:25;;;;;;;2.85;1.60;;;;;;;-1.01;82.45;100291.84;6284042;22;20011;-76
2022/04/01 01:55:19;;;;;;;5.50;1.50;;;;;;;-0.92;83.17;100288.03;6283614;22;20054;-75
2022/04/01 01:57:44;;;;;;;6.05;1.58;;;;;;;-0.94;83.00;100289.22;6231620;22;20249;-74
2022/04/01 02:00:11;;;;;;;4.68;1.90;;;;;;;-0.89;82.38;100308.28;6232792;22;20023;-78
2022/04/01 02:02:38;;;;;;;4.28;1.45;;;;;;;-0.83;82.70;100303.97;6202598;22;20012;-76
2022/04/01 02:05:07;;;;;;;2.47;1.55;;;;;;;-0.96;83.24;100288.59;6232055;22;20019;-76
2022/04/01 02:07:33;;;;;;;2.03;1.15;;;;;;;-0.85;83.41;100292.59;6262118;22;20034;-76
2022/04/01 02:09:59;;;;;;;7.38;1.67;;;;;;;-0.83;82.66;100295.91;6213563;22;20091;-75
2022/04/01 02:12:25;;;;;;;1.85;1.10;;;;;;;-0.82;82.90;100297.59;6234431;22;20085;-77
2022/04/01 02:14:51;;;;;;;3.30;1.63;;;;;;;-0.73;82.28;100307.16;6232517;22;20012;-75
2022/04/01 02:17:17;;;;;;;5.35;1.40;;;;;;;-0.84;82.23;100283.53;6232743;22;20037;-77
2022/04/01 02:19:44;;;;;;;8.63;1.50;;;;;;;-0.78;82.84;100304.22;6258399;22;20046;-76
2022/04/01 02:22:10;;;;;;;2.42;1.20;;;;;;;-0.84;83.23;100305.03;6259998;22;20067;-76
2022/04/01 02:24:41;;;;;;;4.18;1.67;;;;;;;-0.86;82.57;100296.31;6259438;22;20011;-75
2022/04/01 02:27:07;;;;;;;3.33;1.40;;;;;;;-0.77;82.54;100306.72;6234683;22;20075;-78
2022/04/01 02:29:33;;;;;;;4.40;1.40;;;;;;;-0.87;82.34;100292.81;6234423;22;20003;-76
2022/04/01 02:31:59;;;;;;;1.65;1.17;;;;;;;-0.79;83.19;100308.78;6259137;22;20030;-76
2022/04/01 02:34:25;;;;;;;3.10;1.35;;;;;;;-0.75;82.88;100298.47;6257193;22;20000;-76
2022/04/01 02:36:51;;;;;;;3.05;1.40;;;;;;;-0.86;82.70;100280.19;6258974;22;20027;-77
2022/04/01 02:39:18;;;;;;;1.90;1.30;;;;;;;-0.81;82.47;100283.97;6285729;22;20042;-77
2022/04/01 02:41:44;;;;;;;2.72;1.33;;;;;;;-0.66;82.87;100299.97;6207575;22;20015;-76
2022/04/01 02:44:09;;;;;;;2.95;1.75;;;;;;;-0.55;83.06;100304.00;6231525;22;20220;-78
2022/04/01 02:46:37;;;;;;;2.65;1.48;;;;;;;-0.55;82.17;100304.81;6233561;22;20023;-78
2022/04/01 02:49:06;;;;;;;2.95;1.77;;;;;;;-0.66;81.66;100302.66;6256443;22;20007;-76
2022/04/01 02:51:36;;;;;;;3.10;1.52;;;;;;;-0.64;82.40;100299.78;6230668;22;20010;-77
2022/04/01 02:54:03;;;;;;;2.15;1.42;;;;;;;-0.69;83.45;100303.06;6235147;22;20019;-76
2022/04/01 02:56:30;;;;;;;5.20;1.92;;;;;;;-0.68;83.10;100303.91;6258288;22;20008;-76
2022/04/01 02:58:56;;;;;;;4.32;1.48;;;;;;;-0.69;82.62;100300.38;6233341;22;20007;-76
2022/04/01 03:01:21;;;;;;;4.38;1.80;;;;;;;-0.87;82.37;100290.13;6228194;22;20061;-75
2022/04/01 03:03:47;;;;;;;6.18;1.80;;;;;;;-0.86;83.21;100302.53;6282669;22;20086;-75
2022/04/01 03:06:12;;;;;;;4.18;1.58;;;;;;;-0.82;82.80;100300.28;6281804;22;20063;-74
2022/04/01 03:08:40;;;;;;;4.03;1.75;;;;;;;-0.72;83.25;100303.44;6229539;22;20011;-74
2022/04/01 03:11:06;;;;;;;3.17;1.85;;;;;;;-0.82;82.95;100292.22;6231890;22;20007;-74
2022/04/01 03:13:32;;;;;;;2.00;1.50;;;;;;;-0.91;82.68;100299.56;6283680;22;20327;-76
2022/04/01 03:15:58;;;;;;;3.17;1.83;;;;;;;-0.99;83.71;100303.25;6286589;22;19995;-75
2022/04/01 03:18:23;;;;;;;2.15;1.52;;;;;;;-0.97;83.60;100306.53;6231418;22;20094;-74
2022/04/01 03:20:49;;;;;;;3.03;1.80;;;;;;;-0.95;83.85;100299.16;6282131;22;20003;-71
2022/04/01 03:23:15;;;;;;;2.65;1.75;;;;;;;-0.89;83.81;100309.09;6285448;22;20118;-76
2022/04/01 03:25:41;;;;;;;2.08;1.40;;;;;;;-0.94;83.67;100311.53;6232313;22;20023;-77
2022/04/01 03:28:07;;;;;;;4.85;1.90;;;;;;;-0.98;82.94;100310.28;6257166;22;20008;-76
2022/04/01 03:30:33;;;;;;;5.10;1.67;;;;;;;-0.95;83.28;100309.88;6286806;22;20000;-76
2022/04/01 03:32:59;;;;;;;6.97;2.05;;;;;;;-0.95;83.33;100315.25;6260747;22;20133;-76
2022/04/01 03:35:24;;;;;;;2.78;1.55;;;;;;;-0.94;84.52;100316.06;6284809;22;20085;-74
2022/04/01 03:37:50;;;;;;;3.50;1.63;;;;;;;-0.78;83.64;100312.28;6260135;22;20049;-75
2022/04/01 03:40:16;;;;;;;4.50;2.15;;;;;;;-0.80;83.96;100311.66;6285864;22;20038;-75
2022/04/01 03:42:47;;;;;;;2.75;1.50;;;;;;;-0.75;84.12;100318.09;6258698;22;20015;-76
2022/04/01 03:45:14;;;;;;;2.78;1.50;;;;;;;-0.76;83.38;100320.97;6257529;22;20014;-75
2022/04/01 03:48:01;;;;;;;2.10;1.60;;;;;;;-0.80;82.87;100317.84;6256521;22;20015;-77
2022/04/01 03:50:32;;;;;;;5.90;2.00;;;;;;;-0.89;83.17;100325.22;6258340;22;20011;-76
2022/04/01 03:53:04;;;;;;;1.88;1.58;;;;;;;-0.88;83.17;100326.03;6257181;22;20015;-76
2022/04/01 03:55:31;;;;;;;2.95;1.70;;;;;;;-0.92;84.00;100330.97;6286262;22;20005;-77
2022/04/01 03:58:05;;;;;;;4.95;2.00;;;;;;;-0.89;84.07;100330.59;6258879;22;20015;-76
2022/04/01 04:00:32;;;;;;;3.13;1.70;;;;;;;-0.97;84.18;100327.19;6285035;22;20007;-76
2022/04/01 04:02:59;;;;;;;3.13;1.60;;;;;;;-0.99;84.53;100335.44;6284057;22;20078;-77
2022/04/01 04:05:27;;;;;;;5.25;1.75;;;;;;;-0.86;84.74;100339.25;6259162;22;20007;-77
2022/04/01 04:07:53;;;;;;;3.30;1.50;;;;;;;-0.82;84.20;100340.53;6256238;22;20010;-75
2022/04/01 04:10:21;;;;;;;5.13;2.33;;;;;;;-0.78;83.20;100348.00;6285676;22;20000;-77
2022/04/01 04:12:48;;;;;;;2.85;1.88;;;;;;;-0.87;83.84;100349.19;6259005;22;20012;-75
2022/04/01 04:15:13;;;;;;;1.50;1.38;;;;;;;-0.93;83.40;100350.78;6256167;22;20031;-77
2022/04/01 04:17:39;;;;;;;4.07;1.80;;;;;;;-1.00;83.13;100352.56;6257937;22;20012;-76
2022/04/01 04:20:14;;;;;;;2.22;1.38;;;;;;;-1.04;83.58;100353.97;6254932;22;20062;-77
2022/04/01 04:23:24;;;;;;;4.95;1.90;;;;;;;-1.03;83.75;100355.63;6284821;22;20000;-75
2022/04/01 04:26:11;;;;;;;3.78;1.92;;;;;;;-1.15;84.29;100357.19;6278261;22;20007;-75
2022/04/01 04:28:39;;;;;;;2.22;1.63;;;;;;;-1.13;84.81;100365.88;6282802;22;20011;-75
2022/04/01 04:31:08;;;;;;;3.90;2.08;;;;;;;-1.21;84.02;100368.66;6286018;22;20016;-74
2022/04/01 04:33:44;;;;;;;3.15;1.60;;;;;;;-1.26;84.27;100364.69;6283912;22;20027;-75
2022/04/01 04:36:11;;;;;;;2.10;1.60;;;;;;;-1.20;85.19;100367.66;6231504;22;20023;-75
2022/04/01 04:38:40;;;;;;;3.90;1.77;;;;;;;-1.21;84.52;100368.66;6256940;22;20003;-75
2022/04/01 04:41:10;;;;;;;2.85;1.80;;;;;;;-1.21;84.17;100369.50;6286718;22;20000;-76
2022/04/01 04:43:44;;;;;;;2.75;1.88;;;;;;;-1.23;84.32;100377.75;6232260;22;20000;-76
2022/04/01 04:46:10;;;;;;;6.80;1.98;;;;;;;-1.34;84.76;100370.19;6257798;22;20004;-77
2022/04/01 04:48:41;;;;;;;3.50;1.63;;;;;;;-1.41;84.34;100377.31;6259524;22;20008;-77
2022/04/01 04:51:08;;;;;;;5.38;1.75;;;;;;;-1.38;84.47;100379.63;6259104;22;20007;-76
2022/04/01 04:53:35;;;;;;;4.28;2.10;;;;;;;-1.36;84.57;100377.56;6286441;22;20028;-78
2022/04/01 04:56:02;;;;;;;4.63;1.60;;;;;;;-1.40;84.72;100376.31;6259485;22;20004;-77
2022/04/01 04:58:39;;;;;;;3.17;2.15;;;;;;;-1.36;84.73;100380.25;6235024;22;20057;-76
2022/04/01 05:01:28;;;;;;;2.63;1.60;;;;;;;-1.38;84.91;100374.25;6283394;22;19999;-77
2022/04/01 05:04:10;;;;;;;2.65;1.92;;;;;;;-1.35;85.36;100384.59;6258924;22;20682;-77
2022/04/01 05:07:06;;;;;;;;;;;;;;;;;;;;;
2022/04/01 05:09:43;;;;;;;3.63;1.88;;;;;;;-1.44;84.93;100386.56;6194038;22;20043;-77
2022/04/01 05:12:32;;;;;;;4.22;1.95;;;;;;;-1.52;84.48;100384.00;6283859;22;20000;-76
2022/04/01 05:15:11;;;;;;;2.08;1.88;;;;;;;-1.62;84.79;100381.63;6256320;22;20049;-77
2022/04/01 05:17:43;;;;;;;4.10;1.63;;;;;;;-1.61;84.78;100393.16;6256876;22;20008;-78
2022/04/01 05:20:17;;;;;;;3.00;1.40;;;;;;;-1.62;85.47;100400.38;6283684;22;19999;-77
2022/04/01 05:22:54;;;;;;;5.47;1.98;;;;;;;-1.61;85.62;100401.22;6284754;22;19999;-76
2022/04/01 05:25:22;;;;;;;6.30;1.70;;;;;;;-1.62;85.40;100394.19;6256377;22;20008;-78
2022/04/01 05:27:57;;;;;;;3.35;1.70;;;;;;;-1.70;85.16;100397.78;6283697;22;19999;-77
2022/04/01 05:30:26;;;;;;;3.75;1.63;;;;;;;-1.66;85.83;100403.63;6283292;22;20031;-77
2022/04/01 05:33:06;;;;;;;3.42;1.90;;;;;;;-1.65;86.17;100411.50;6257190;22;20023;-76
2022/04/01 05:35:37;;;;;;;7.35;2.55;;;;;;;-1.67;85.41;100402.78;6260776;22;20406;-74
2022/04/01 05:38:04;;;;;;;5.53;2.00;;;;;;;-1.70;85.49;100407.69;6254785;22;20003;-74
2022/04/01 05:40:31;;;;;;;4.15;1.80;;;;;;;-1.63;86.39;100414.81;6256492;22;20038;-74
2022/04/01 05:42:58;;;;;;;7.43;2.15;;;;;;;-1.62;85.56;100419.16;6253618;22;20035;-76
2022/04/01 05:45:26;;;;;;;4.93;1.77;;;;;;;-1.62;85.56;100421.84;6281923;22;20066;-74
2022/04/01 05:47:53;;;;;;;2.22;1.42;;;;;;;-1.67;85.92;100424.22;6279188;22;20007;-73
2022/04/01 05:50:19;;;;;;;2.83;1.58;;;;;;;-1.50;86.54;100430.25;6228936;22;20031;-73
2022/04/01 05:52:49;;;;;;;5.47;1.63;;;;;;;-1.38;86.19;100438.66;6280175;22;20016;-76
2022/04/01 05:55:17;;;;;;;2.03;1.30;;;;;;;-1.36;85.90;100436.59;6282312;22;20011;-75
2022/04/01 05:57:43;;;;;;;8.38;1.65;;;;;;;-1.35;85.66;100438.28;6282951;22;20049;-75
2022/04/01 06:00:56;;;;;;;4.28;1.65;;;;;;;-1.35;84.65;100446.31;6285402;22;20007;-76
2022/04/01 06:03:46;;;;;;;2.85;1.40;;;;;;;-1.35;85.45;100451.69;6159117;23;20096;-76
2022/04/01 06:06:43;;;;;;;3.70;2.35;;;;;;;-1.29;84.45;100464.34;6269340;22;20070;-77
2022/04/01 06:09:30;;;;;;;3.17;1.60;;;;;;;-1.20;84.48;100462.38;6283269;22;20033;-76
2022/04/01 06:12:02;;;;;;;6.97;1.88;;;;;;;-1.13;85.18;100467.84;6258172;22;20007;-76
2022/04/01 06:14:53;;;;;;;4.20;1.80;;;;;;;-1.03;84.39;100468.38;6284766;22;20078;-77
2022/04/01 06:17:36;;;;;;;3.08;1.50;;;;;;;-0.99;84.87;100463.44;6257633;22;20034;-77
2022/04/01 06:20:07;;;;;;;4.25;1.75;;;;;;;-0.94;84.65;100469.91;6285389;22;20000;-74
2022/04/01 06:22:36;;;;;;;3.78;1.95;;;;;;;-0.89;83.97;100464.81;6257097;22;20011;-75
2022/04/01 06:25:16;;;;;;;8.10;1.83;;;;;;;-0.73;84.22;100479.88;6279309;22;20063;-76
2022/04/01 06:27:49;;;;;;;5.05;1.83;;;;;;;-0.66;82.92;100476.41;6254353;22;20083;-76
2022/04/01 06:30:21;;;;;;;4.07;1.80;;;;;;;-0.41;84.26;100469.66;6255251;22;20012;-75
2022/04/01 06:32:50;;;;;;;2.28;1.40;;;;;;;-0.27;83.50;100478.66;6259156;22;20011;-75
2022/04/01 06:35:31;;;;;;;2.95;1.63;;;;;;;-0.16;81.93;100484.53;6282749;22;20004;-76
2022/04/01 06:38:06;;;;;;;7.10;1.75;;;;;;;-0.12;82.26;100480.44;6259544;22;20008;-76
2022/04/01 06:41:08;;;;;;;9.27;2.00;;;;;;;-0.10;81.75;100489.97;6257521;22;20081;-74
2022/04/01 06:43:36;;;;;;;2.55;1.55;;;;;;;-0.11;81.83;100474.84;6260592;22;20039;-78
2022/04/01 06:46:04;;;;;;;2.38;1.52;;;;;;;0.08;80.61;100473.34;6232362;22;20003;-78
2022/04/01 06:48:33;;;;;;;4.72;1.45;;;;;;;0.40;80.29;100479.16;6260543;22;20031;-79
2022/04/01 06:50:59;;;;;;;5.50;1.80;;;;;;;0.52;79.50;100479.41;6233208;22;20130;-73
2022/04/01 06:53:26;;;;;;;6.20;2.03;;;;;;;0.68;79.69;100497.94;6235582;22;20023;-75
2022/04/01 06:55:53;;;;;;;3.47;1.25;;;;;;;0.71;79.72;100485.94;6289670;22;20011;-74
2022/04/01 06:58:18;;;;;;;4.45;1.48;;;;;;;0.81;78.77;100502.56;6261840;22;20008;-72
2022/04/01 07:00:44;;;;;;;5.03;1.65;;;;;;;0.70;77.60;100489.66;6232862;22;20355;-75
2022/04/01 07:03:12;;;;;;;4.45;1.77;;;;;;;0.79;79.11;100509.16;6233915;22;20007;-75
2022/04/01 07:05:44;;;;;;;3.00;1.45;;;;;;;0.73;78.32;100500.03;6287394;22;20023;-76
2022/04/01 07:08:11;;;;;;;3.60;1.70;;;;;;;0.84;77.68;100512.91;6256715;22;20386;-76
2022/04/01 07:10:41;;;;;;;4.43;1.70;;;;;;;0.87;77.45;100500.94;6259625;22;20079;-72
2022/04/01 07:13:21;;;;;;;3.80;1.75;;;;;;;0.92;76.82;100509.25;6255705;22;20004;-74
2022/04/01 07:15:50;;;;;;;6.07;1.70;;;;;;;0.99;77.75;100520.03;6286726;22;20023;-76
2022/04/01 07:18:18;;;;;;;5.68;2.13;;;;;;;1.08;77.93;100529.63;6257271;22;20007;-76
2022/04/01 07:20:52;;;;;;;5.63;1.73;;;;;;;1.18;77.19;100529.22;6286554;22;20003;-77
2022/04/01 07:23:18;;;;;;;2.55;1.27;;;;;;;1.24;76.14;100524.91;6260271;22;20094;-76
2022/04/01 07:25:44;;;;;;;6.60;1.67;;;;;;;1.11;76.43;100510.34;6287563;22;20004;-76
2022/04/01 07:28:15;;;;;;;2.65;1.45;;;;;;;1.18;76.07;100516.59;6285017;22;20007;-76
2022/04/01 07:30:40;;;;;;;3.40;1.83;;;;;;;1.38;75.66;100535.50;6257807;22;20015;-75
2022/04/01 07:33:09;;;;;;;3.55;1.65;;;;;;;1.47;76.25;100530.75;6281078;22;19995;-74
2022/04/01 07:35:35;;;;;;;3.05;1.65;;;;;;;1.52;75.55;100531.00;6276519;22;20002;-73
2022/04/01 07:38:03;;;;;;;7.93;1.40;;;;;;;1.53;75.67;100511.09;6277181;22;20063;-75
2022/04/01 07:40:29;;;;;;;7.65;2.15;;;;;;;1.81;75.42;100538.91;6278869;22;20007;-73
2022/04/01 07:42:55;;;;;;;3.25;1.60;;;;;;;1.88;75.40;100540.63;6254743;22;20466;-74
2022/04/01 07:45:21;;;;;;;3.40;1.50;;;;;;;2.07;74.25;100554.31;6272414;22;20035;-71
2022/04/01 07:47:49;;;;;;;4.32;1.73;;;;;;;2.04;73.60;100541.22;6246319;22;20058;-74
2022/04/01 07:50:19;;;;;;;4.07;1.83;;;;;;;2.14;74.01;100549.75;6252140;22;20007;-75
2022/04/01 07:52:47;;;;;;;3.47;1.58;;;;;;;2.14;73.74;100538.94;6249467;22;20030;-74
2022/04/01 07:55:15;;;;;;;2.92;1.70;;;;;;;2.11;73.79;100539.38;6229940;22;20007;-74
2022/04/01 07:58:00;;;;;;;4.70;1.45;;;;;;;2.25;73.88;100538.34;6228970;22;20012;-76
2022/04/01 08:00:27;;;;;;;2.83;1.52;;;;;;;2.58;73.28;100539.31;6255306;22;20008;-75
2022/04/01 08:02:54;;;;;;;1.50;1.38;;;;;;;2.96;71.13;100547.56;6284048;22;20055;-75
2022/04/01 08:05:20;;;;;;;3.42;1.58;;;;;;;3.03;70.63;100557.50;6257777;22;20445;-74
2022/04/01 08:07:47;;;;;;;3.70;1.65;;;;;;;2.92;70.58;100562.53;6290922;22;20018;-71
2022/04/01 08:10:12;;;;;;;2.20;1.42;;;;;;;2.86;70.55;100552.59;6289526;22;20000;-76
2022/04/01 08:12:40;;;;;;;3.17;1.20;;;;;;;3.55;70.11;100566.44;6259186;22;20014;-73
2022/04/01 08:15:09;;;;;;;3.20;1.40;;;;;;;4.97;65.39;100556.13;6258619;22;20003;-76
2022/04/01 08:17:34;;;;;;;2.20;1.33;;;;;;;6.64;59.99;100537.44;6235064;22;20008;-73
2022/04/01 08:20:02;;;;;;;6.20;1.40;;;;;;;8.51;53.64;100566.06;6255016;22;20279;-74
2022/04/01 08:22:27;;;;;;;20.08;1.63;;;;;;;9.86;49.61;100553.03;6254980;22;20089;-76
2022/04/01 08:24:53;;;;;;;2.28;1.23;;;;;;;11.37;46.54;100563.94;6254993;22;20003;-76
2022/04/01 08:27:18;;;;;;;2.42;1.20;;;;;;;12.61;42.86;100576.72;6253800;22;20489;-75
2022/04/01 08:29:44;;;;;;;5.55;2.65;;;;;;;13.62;41.12;100578.66;6229036;22;20016;-75
2022/04/01 08:32:10;;;;;;;4.22;1.33;;;;;;;14.26;38.07;100567.78;6251185;22;20021;-73
2022/04/01 08:34:37;;;;;;;1.85;1.00;;;;;;;14.69;37.01;100583.69;6252943;22;20064;-76
2022/04/01 08:37:03;;;;;;;3.45;0.93;;;;;;;15.27;36.09;100572.59;6280846;22;20175;-76
2022/04/01 08:39:29;;;;;;;2.13;0.90;;;;;;;16.26;34.95;100588.66;6227779;22;20008;-74
2022/04/01 08:41:56;;;;;;;3.15;1.13;;;;;;;17.04;31.82;100584.28;6228855;22;20013;-74
2022/04/01 08:44:22;;;;;;;2.28;1.00;;;;;;;17.35;31.18;100607.72;6278126;22;20003;-74
2022/04/01 08:46:47;;;;;;;1.70;0.77;;;;;;;18.03;31.59;100589.38;6228592;22;20037;-74
2022/04/01 08:49:13;;;;;;;3.10;0.80;;;;;;;19.20;29.08;100611.66;6227986;22;20364;-75
2022/04/01 08:51:39;;;;;;;2.30;1.00;;;;;;;20.06;27.89;100615.00;6253039;22;20011;-73
2022/04/01 08:54:07;;;;;;;3.13;1.10;;;;;;;21.12;26.50;100601.78;6221551;22;20113;-73
2022/04/01 08:56:33;;;;;;;1.42;0.70;;;;;;;22.31;24.42;100604.47;6243936;22;20008;-74
2022/04/01 08:58:58;;;;;;;2.40;0.70;;;;;;;22.89;22.69;100606.56;6218460;22;20066;-75
2022/04/01 09:01:26;;;;;;;4.28;0.90;;;;;;;24.00;21.54;100614.97;6227232;22;20016;-74
2022/04/01 09:03:55;;;;;;;1.80;0.85;;;;;;;24.79;20.74;100614.44;6254135;22;20007;-73
2022/04/01 09:06:20;;;;;;;4.28;0.90;;;;;;;24.70;20.83;100608.19;6249647;22;20035;-73
2022/04/01 09:08:46;;;;;;;3.20;1.13;;;;;;;25.31;20.31;100620.19;6277742;22;20472;-74
2022/04/01 09:11:16;;;;;;;3.45;0.80;;;;;;;25.70;19.25;100615.53;6276983;22;20004;-72
2022/04/01 09:13:45;;;;;;;2.13;0.70;;;;;;;25.95;18.68;100627.28;6250964;22;20086;-74
2022/04/01 09:16:31;;;;;;;2.85;0.75;;;;;;;25.74;17.90;100612.81;6278639;22;20008;-74
2022/04/01 09:19:02;;;;;;;3.72;1.10;;;;;;;26.06;18.35;100627.56;6278974;22;20450;-72
2022/04/01 09:21:39;;;;;;;2.97;0.77;;;;;;;26.41;17.92;100617.47;6278918;22;20011;-73
2022/04/01 09:24:06;;;;;;;4.05;0.90;;;;;;;26.68;17.55;100623.22;6252001;22;20011;-74
2022/04/01 09:26:34;;;;;;;3.13;0.90;;;;;;;26.91;17.46;100629.69;6224665;22;20018;-74
2022/04/01 09:29:00;;;;;;;1.48;0.85;;;;;;;26.82;17.11;100624.31;6250354;22;20004;-73
2022/04/01 09:31:31;;;;;;;2.40;0.60;;;;;;;27.09;17.26;100623.59;6250159;22;20034;-72
2022/04/01 09:33:57;;;;;;;2.10;0.70;;;;;;;27.72;16.04;100624.22;6277832;22;20003;-73
2022/04/01 09:36:40;;;;;;;1.85;0.75;;;;;;;24.18;17.90;100621.06;6253657;22;20019;-74
2022/04/01 09:39:09;;;;;;;3.27;0.60;;;;;;;22.78;19.21;100626.53;6279865;22;20006;-73
2022/04/01 09:41:58;;;;;;;4.53;1.20;;;;;;;22.73;19.42;100615.56;6279746;22;20221;-72
2022/04/01 09:44:29;;;;;;;2.75;0.88;;;;;;;22.02;20.91;100614.56;6255855;22;20000;-73
2022/04/01 09:47:00;;;;;;;2.60;0.80;;;;;;;24.05;19.04;100626.72;6246856;22;20570;-72
2022/04/01 09:49:30;;;;;;;2.53;0.63;;;;;;;25.33;17.05;100620.63;6273233;22;20059;-73
2022/04/01 09:51:57;;;;;;;6.32;0.70;;;;;;;25.63;16.85;100614.53;6248034;22;20026;-74
2022/04/01 09:54:24;;;;;;;2.97;0.73;;;;;;;27.36;15.91;100618.03;6281194;22;20035;-75
2022/04/01 09:56:54;;;;;;;4.47;1.02;;;;;;;27.97;14.46;100625.38;6255466;22;20007;-75
2022/04/01 09:59:21;;;;;;;2.55;0.50;;;;;;;27.83;13.87;100619.53;6283026;22;20007;-76
2022/04/01 10:01:48;;;;;;;2.42;0.50;;;;;;;26.89;14.32;100605.97;6257570;22;20004;-76
2022/04/01 10:04:16;;;;;;;0.73;0.43;;;;;;;25.43;15.13;100626.47;6231534;22;19999;-75
2022/04/01 10:06:50;;;;;;;2.00;0.73;;;;;;;24.47;16.03;100628.31;6255215;22;20011;-75
2022/04/01 10:09:18;;;;;;;4.88;0.88;;;;;;;25.69;15.76;100636.31;6254349;22;20110;-75
2022/04/01 10:11:45;;;;;;;1.45;0.70;;;;;;;24.66;16.34;100621.28;6255149;22;20003;-75
2022/04/01 10:14:16;;;;;;;0.98;0.60;;;;;;;22.56;17.37;100626.91;6282702;22;20004;-75
2022/04/01 10:16:43;;;;;;;4.00;0.63;;;;;;;23.73;17.52;100625.69;6282694;22;20000;-77
2022/04/01 10:19:23;;;;;;;2.22;0.88;;;;;;;23.51;17.05;100625.00;6285308;22;20004;-76
2022/04/01 10:21:48;;;;;;;3.40;1.00;;;;;;;22.16;18.03;100630.19;6258191;22;20015;-74
2022/04/01 10:24:18;;;;;;;2.25;0.60;;;;;;;19.84;19.72;100629.84;6232906;22;20004;-75
2022/04/01 10:27:07;;;;;;;1.95;0.77;;;;;;;17.38;22.58;100618.97;6284126;22;20000;-76
2022/04/01 10:29:34;;;;;;;1.85;0.63;;;;;;;17.83;22.53;100634.91;6293222;22;20014;-76
2022/04/01 10:32:27;;;;;;;5.65;0.95;;;;;;;22.39;18.01;100639.84;6238804;22;20015;-75
2022/04/01 10:35:00;;;;;;;2.28;0.75;;;;;;;20.14;19.08;100621.72;6284146;22;20029;-76
2022/04/01 10:37:28;;;;;;;3.78;1.00;;;;;;;18.53;21.16;100616.19;6257975;22;20007;-75
2022/04/01 10:39:57;;;;;;;1.05;0.70;;;;;;;20.24;21.61;100615.84;6285281;22;20007;-76
2022/04/01 10:42:39;;;;;;;2.72;1.00;;;;;;;20.65;20.22;100611.69;6286106;22;20576;-75
2022/04/01 10:45:23;;;;;;;3.25;1.10;;;;;;;18.23;21.16;100632.38;6284997;22;20054;-77
2022/04/01 10:53:48;;;;;;;1.60;0.70;;;;;;;15.49;26.03;100621.66;6286235;22;20519;-77
2022/04/01 10:56:26;;;;;;;2.05;1.05;;;;;;;20.78;20.76;100640.47;6284985;22;20007;-76
2022/04/01 10:59:14;;;;;;;2.45;0.70;;;;;;;24.32;16.99;100643.06;6287372;22;20007;-74
2022/04/01 11:02:00;;;;;;;5.28;0.80;;;;;;;24.95;16.20;100641.63;6281472;22;20025;-74
2022/04/01 11:04:31;;;;;;;1.25;0.70;;;;;;;21.89;18.01;100643.44;6254249;22;20000;-75
2022/04/01 11:07:04;;;;;;;2.92;0.80;;;;;;;19.52;20.14;100637.38;6256420;22;19999;-73
2022/04/01 11:09:33;;;;;;;3.40;0.70;;;;;;;20.64;18.96;100640.63;6281764;22;20030;-74
2022/04/01 11:12:18;;;;;;;4.80;0.70;;;;;;;25.04;16.66;100633.88;6255777;22;20014;-75
2022/04/01 11:17:51;;;;;;;5.40;1.00;;;;;;;19.72;19.46;100619.34;6286078;22;20072;-76
2022/04/01 11:20:19;;;;;;;1.58;0.90;;;;;;;17.26;22.93;100638.81;6281798;22;20578;-76
2022/04/01 11:22:59;;;;;;;3.78;1.00;;;;;;;16.14;23.70;100622.22;6259964;22;20007;-75
2022/04/01 11:29:56;;;;;;;;;;;;;;;;;;;;;
2022/04/01 11:32:54;;;;;;;1.80;0.90;;;;;;;20.49;19.85;100643.94;6161289;23;20033;-76
2022/04/01 11:36:02;;;;;;;1.80;0.85;;;;;;;18.86;20.69;100607.59;6160552;23;20247;-74
2022/04/01 11:38:31;;;;;;;1.42;0.60;;;;;;;17.30;21.18;100616.09;6249286;22;19999;-74
2022/04/01 11:41:19;;;;;;;1.70;0.60;;;;;;;16.27;23.54;100591.09;6257959;22;20025;-76
2022/04/01 11:43:45;;;;;;;1.38;0.85;;;;;;;20.00;21.11;100597.69;6258173;22;20000;-74
2022/04/01 11:46:10;;;;;;;4.22;1.00;;;;;;;20.56;18.84;100633.94;6256836;22;20006;-76
2022/04/01 11:48:38;;;;;;;1.60;0.63;;;;;;;21.73;17.60;100634.91;6294035;22;20023;-76
2022/04/01 11:51:18;;;;;;;1.75;0.88;;;;;;;21.29;18.08;100637.88;6268486;22;20006;-74
2022/04/01 11:53:52;;;;;;;4.57;0.68;;;;;;;26.38;15.20;100652.66;6294606;22;20023;-75
2022/04/01 11:56:20;;;;;;;1.20;0.70;;;;;;;28.95;12.68;100649.06;6258516;22;20313;-75
2022/04/01 11:58:52;;;;;;;1.65;0.60;;;;;;;26.32;13.27;100647.72;6285619;22;20004;-74
2022/04/01 12:01:19;;;;;;;5.80;0.70;;;;;;;22.11;15.90;100645.94;6258556;22;20430;-76
2022/04/01 12:03:45;;;;;;;3.67;0.80;;;;;;;22.48;16.82;100654.50;6286718;22;20007;-74